Time;durP1;ratioP1;P1;durP2;ratioP2;P2;SDS_P1;SDS_P2;PMS_P1;PMS_P2;Temp;Humidity;BMP_temperature;BMP_pressure;BME280_temperature;BME280_humidity;BME280_pressure;Samples;Min_cycle;Max_cycle;Signal;HPM_P1;HPM_P2
2021/07/30 00:02:06;;;;;;;;;;;16.70;86.90;;;17.23;72.45;100060.56;5072097;28;19966;-87
2021/07/30 00:04:34;;;;;;;;;;;16.70;87.00;;;17.22;72.48;100067.16;5071899;28;19925;-87
2021/07/30 00:07:01;;;;;;;;;;;16.70;87.10;;;17.18;72.50;100059.38;5071160;28;19921;-87
2021/07/30 00:09:29;;;;;;;;;;;16.60;87.20;;;17.17;72.77;100060.47;5071850;28;20042;-86
2021/07/30 00:11:57;;;;;;;;;;;16.60;87.20;;;17.16;72.66;100061.53;5071495;28;19931;-86
2021/07/30 00:14:24;;;;;;;;;;;16.60;87.20;;;17.13;72.62;100056.50;5071775;28;19960;-87
2021/07/30 00:16:51;;;;;;;;;;;16.60;87.00;;;17.11;72.99;100058.66;5070846;28;19928;-86
2021/07/30 00:19:18;;;;;;;;;;;16.60;87.30;;;17.12;73.09;100054.00;5071498;28;19924;-87
2021/07/30 00:21:45;;;;;;;;;;;16.60;87.60;;;17.12;72.93;100052.09;5071467;28;19955;-86
2021/07/30 00:24:12;;;;;;;;;;;16.60;87.40;;;17.09;73.27;100047.06;5071478;28;19968;-86
2021/07/30 00:26:40;;;;;;;;;;;16.70;87.50;;;17.08;73.37;100056.41;5070448;28;20438;-87
2021/07/30 00:29:08;;;;;;;;;;;16.70;87.60;;;17.09;73.47;100060.81;5071486;28;19967;-86
2021/07/30 00:31:35;;;;;;;;;;;16.70;87.40;;;17.12;73.70;100054.00;5069896;28;19925;-86
2021/07/30 00:34:02;;;;;;;;;;;16.70;87.50;;;17.08;73.84;100056.41;5071310;28;19931;-86
2021/07/30 00:36:29;;;;;;;;;;;16.70;87.70;;;17.08;73.73;100056.41;5070454;28;19986;-86
2021/07/30 00:38:57;;;;;;;;;;;16.80;87.70;;;17.08;73.90;100063.81;5071132;28;19924;-85
2021/07/30 00:41:24;;;;;;;;;;;16.80;87.60;;;17.08;74.19;100056.41;5071400;28;19998;-86
2021/07/30 00:43:53;;;;;;;;;;;16.80;87.80;;;17.08;74.39;100048.16;5071205;28;20335;-87
2021/07/30 00:46:21;;;;;;;;;;;16.80;87.80;;;17.07;74.68;100049.22;5070139;28;20438;-87
2021/07/30 00:48:48;;;;;;;;;;;16.80;88.00;;;17.08;74.81;100045.41;5070971;28;20013;-86
2021/07/30 00:51:15;;;;;;;;;;;16.90;88.10;;;17.09;74.82;100048.97;5069470;28;19959;-87
2021/07/30 00:53:42;;;;;;;;;;;16.90;88.00;;;17.09;74.89;100044.31;5070825;28;19924;-87
2021/07/30 00:56:09;;;;;;;;;;;16.90;87.80;;;17.10;75.11;100046.00;5070070;28;19924;-87
2021/07/30 00:58:36;;;;;;;;;;;16.90;88.00;;;17.10;75.12;100048.75;5070733;28;19960;-87
2021/07/30 01:01:05;;;;;;;;;;;17.00;88.00;;;17.11;75.43;100044.91;5070674;28;20720;-87
2021/07/30 01:03:32;;;;;;;;;;;17.00;88.20;;;17.12;75.44;100048.50;5070677;28;19920;-86
2021/07/30 01:05:59;;;;;;;;;;;17.00;87.70;;;17.12;75.35;100041.09;5051832;28;19974;-86
2021/07/30 01:08:26;;;;;;;;;;;17.10;87.60;;;17.11;74.79;100053.16;5054997;28;19924;-86
2021/07/30 01:10:53;;;;;;;;;;;17.10;87.20;;;17.14;75.26;100051.84;5070536;28;19924;-87
2021/07/30 01:13:21;;;;;;;;;;;17.10;87.30;;;17.15;75.42;100042.50;5070876;28;19926;-86
2021/07/30 01:15:48;;;;;;;;;;;17.10;87.30;;;17.17;75.25;100046.72;5070497;28;19963;-86
2021/07/30 01:18:16;;;;;;;;;;;17.20;87.20;;;17.17;74.85;100040.34;5070338;28;19924;-86
2021/07/30 01:20:45;;;;;;;;;;;17.20;86.70;;;17.18;74.92;100042.03;5070111;28;20010;-86
2021/07/30 01:23:14;;;;;;;;;;;17.30;86.60;;;17.18;74.89;100037.38;5070335;28;20373;-86
2021/07/30 01:25:41;;;;;;;;;;;17.30;86.80;;;17.19;75.00;100039.06;5070230;28;19956;-86
2021/07/30 01:28:08;;;;;;;;;;;17.30;86.60;;;17.20;74.76;100039.88;5069050;28;19925;-86
2021/07/30 01:30:35;;;;;;;;;;;17.30;86.10;;;17.22;74.73;100034.97;5068653;28;19924;-86
2021/07/30 01:33:02;;;;;;;;;;;17.30;86.10;;;17.22;74.67;100043.25;5070016;28;19951;-87
2021/07/30 01:35:30;;;;;;;;;;;17.40;86.20;;;17.22;74.51;100034.16;5069847;28;19924;-86
2021/07/30 01:37:57;;;;;;;;;;;17.40;85.60;;;17.25;74.76;100041.91;5069375;28;20007;-86
2021/07/30 01:40:25;;;;;;;;;;;17.40;86.00;;;17.26;74.86;100038.94;5051913;28;19920;-86
2021/07/30 01:42:52;;;;;;;;;;;17.40;86.50;;;17.28;74.95;100035.94;5070031;28;19924;-86
2021/07/30 01:45:19;;;;;;;;;;;17.40;86.30;;;17.27;74.74;100029.59;5070032;28;20348;-86
2021/07/30 01:47:47;;;;;;;;;;;17.40;86.00;;;17.28;74.45;100035.94;5069143;28;19970;-86
2021/07/30 01:50:14;;;;;;;;;;;17.40;85.60;;;17.28;74.40;100030.44;5069935;28;19928;-86
2021/07/30 01:52:41;;;;;;;;;;;17.50;85.50;;;17.28;74.70;100030.44;5069961;28;19968;-86
2021/07/30 01:55:09;;;;;;;;;;;17.40;85.50;;;17.26;74.92;100030.66;5069973;28;20285;-85
2021/07/30 01:57:37;;;;;;;;;;;17.50;86.00;;;17.27;75.06;100020.50;5069049;28;19928;-86
2021/07/30 02:00:05;;;;;;;;;;;17.50;86.00;;;17.27;74.76;100023.25;5051760;28;20526;-86
2021/07/30 02:02:39;;;;;;;;;;;17.50;85.40;;;17.29;74.60;100021.13;5069903;28;19928;-87
2021/07/30 02:05:07;;;;;;;;;;;17.50;85.40;;;17.31;74.61;100021.72;5069588;28;19978;-86
2021/07/30 02:07:37;;;;;;;;;;;17.50;85.30;;;17.31;74.47;100028.03;5075106;22;20023;-85
2021/07/30 02:10:06;;;;;;;;;;;17.60;85.20;;;17.32;74.62;100023.38;5049637;28;19924;-85
2021/07/30 02:14:14;;;;;;;;;;;17.60;85.30;;;17.32;74.59;100021.44;5049609;28;19951;-85
2021/07/30 02:15:21;;;;;;;;;;;17.50;85.20;;;17.31;74.68;100018.97;5031265;28;19932;-85
2021/07/30 02:17:48;;;;;;;;;;;17.50;85.30;;;17.32;74.49;100015.94;5048737;28;19936;-85
2021/07/30 02:20:15;;;;;;;;;;;17.60;84.90;;;17.32;74.50;100017.88;5031592;28;19974;-85
2021/07/30 02:22:42;;;;;;;;;;;17.60;85.10;;;17.32;74.43;100021.44;5049660;28;20369;-85
2021/07/30 02:25:11;;;;;;;;;;;17.60;84.70;;;17.33;74.32;100014.06;5049457;28;19925;-85
2021/07/30 02:27:38;;;;;;;;;;;17.60;84.90;;;17.34;74.36;100015.72;5048489;28;19927;-85
2021/07/30 02:30:06;;;;;;;;;;;17.70;84.90;;;17.34;74.19;100015.72;5031318;28;19925;-86
2021/07/30 02:35:46;;;;;;;;;;;17.70;85.00;;;17.37;74.21;100001.50;5029402;28;19994;-85
2021/07/30 02:39:08;;;;;;;;;;;17.60;85.10;;;17.32;74.00;100004.94;5031253;28;20379;-85
2021/07/30 02:42:11;;;;;;;;;;;17.60;84.40;;;17.35;74.09;100004.47;5011332;28;20399;-86
2021/07/30 02:45:11;;;;;;;;;;;;;;;;;;;;;
2021/07/30 02:48:47;;;;;;;;;;;17.70;85.00;;;17.39;74.26;100010.34;5053491;28;20078;-85
2021/07/30 02:51:48;;;;;;;;;;;17.70;85.00;;;17.36;74.25;99999.81;5035814;28;19924;-85
2021/07/30 02:54:25;;;;;;;;;;;17.70;85.00;;;17.39;74.19;100004.84;5053694;28;19928;-85
2021/07/30 02:56:52;;;;;;;;;;;17.60;84.80;;;17.39;74.26;99999.34;5034908;28;19978;-85
2021/07/30 02:59:19;;;;;;;;;;;17.60;84.80;;;17.35;73.80;99998.97;5053517;28;19990;-85
2021/07/30 03:01:46;;;;;;;;;;;17.50;84.90;;;17.38;74.22;100003.16;5035183;28;19925;-86
2021/07/30 03:04:14;;;;;;;;;;;17.50;85.30;;;17.35;74.05;99992.66;5051872;28;20339;-85
2021/07/30 03:06:41;;;;;;;;;;;17.50;85.40;;;17.35;74.10;99992.66;5054270;28;19920;-86
2021/07/30 03:09:08;;;;;;;;;;;17.40;85.40;;;17.34;74.16;99996.47;5075687;28;20387;-85
2021/07/30 03:11:35;;;;;;;;;;;17.40;85.60;;;17.32;74.15;100001.38;5073110;28;19973;-85
2021/07/30 03:14:02;;;;;;;;;;;17.30;85.70;;;17.32;74.17;99999.44;5055173;28;19924;-85
2021/07/30 03:16:29;;;;;;;;;;;17.30;86.20;;;17.32;74.24;99990.38;5054114;28;20311;-85
2021/07/30 03:18:56;;;;;;;;;;;17.20;86.40;;;17.30;74.43;99989.78;5073208;28;19925;-84
2021/07/30 03:21:25;;;;;;;;;;;17.20;86.50;;;17.29;74.34;99990.88;5072888;28;19920;-85
2021/07/30 03:23:52;;;;;;;;;;;17.20;86.60;;;17.27;74.32;99990.25;5073072;28;19925;-85
2021/07/30 03:26:19;;;;;;;;;;;17.10;86.70;;;17.25;74.40;99992.41;5072301;28;19924;-86
2021/07/30 03:28:48;;;;;;;;;;;17.10;86.70;;;17.24;74.42;99990.75;5088116;28;19953;-85
2021/07/30 03:31:15;;;;;;;;;;;17.10;86.80;;;17.21;74.46;99983.81;5072848;28;19924;-85
2021/07/30 03:33:42;;;;;;;;;;;17.10;86.80;;;17.23;74.49;99984.41;5054629;28;19960;-85
2021/07/30 03:36:09;;;;;;;;;;;17.10;86.80;;;17.20;74.87;99971.97;5071449;28;20379;-85
2021/07/30 03:38:37;;;;;;;;;;;17.10;87.20;;;17.18;74.68;99974.13;5087690;28;19928;-85
2021/07/30 03:41:05;;;;;;;;;;;17.10;87.20;;;17.17;74.85;99975.22;5054321;28;19920;-85
2021/07/30 03:43:32;;;;;;;;;;;17.00;87.00;;;17.14;74.88;99970.19;5072480;28;19924;-85
2021/07/30 03:45:59;;;;;;;;;;;17.00;86.90;;;17.14;74.60;99972.94;5053728;28;19967;-85
2021/07/30 03:48:26;;;;;;;;;;;17.00;87.00;;;17.13;74.60;99975.94;5054027;28;19924;-85
2021/07/30 03:50:54;;;;;;;;;;;17.00;87.00;;;17.09;74.57;99972.81;5072140;28;19955;-85
2021/07/30 03:53:21;;;;;;;;;;;17.00;87.10;;;17.10;74.69;99974.50;5072367;28;20042;-85
2021/07/30 03:55:49;;;;;;;;;;;16.90;87.10;;;17.12;74.61;99977.03;5054116;28;19955;-86
2021/07/30 03:58:16;;;;;;;;;;;16.90;87.20;;;17.08;74.62;99976.66;5053699;28;19924;-85
2021/07/30 04:00:43;;;;;;;;;;;16.90;87.20;;;17.07;74.67;99980.47;5053881;28;19924;-85
2021/07/30 04:03:10;;;;;;;;;;;16.90;87.30;;;17.04;74.64;99975.47;5087391;28;19974;-85
2021/07/30 04:05:38;;;;;;;;;;;16.90;87.10;;;17.04;74.61;99974.63;5087534;28;19924;-85
2021/07/30 04:08:06;;;;;;;;;;;16.90;87.20;;;17.04;74.62;99972.72;5053513;28;19924;-85
2021/07/30 04:10:33;;;;;;;;;;;17.00;86.90;;;17.05;74.60;99971.63;5087281;28;19924;-85
2021/07/30 04:13:01;;;;;;;;;;;17.00;86.90;;;17.06;74.64;99967.81;5053982;28;20019;-85
2021/07/30 04:15:28;;;;;;;;;;;17.00;86.80;;;17.00;74.69;99968.75;5053802;28;19928;-85
2021/07/30 04:17:56;;;;;;;;;;;17.00;86.90;;;17.03;74.71;99960.03;5071213;28;19970;-85
2021/07/30 04:20:23;;;;;;;;;;;17.00;86.70;;;17.03;74.60;99960.03;5071485;28;19956;-85
2021/07/30 04:22:50;;;;;;;;;;;17.00;86.70;;;17.04;74.84;99952.63;5071681;28;19924;-85
2021/07/30 04:25:18;;;;;;;;;;;17.00;86.70;;;17.01;74.84;99953.97;5053473;28;19924;-85
2021/07/30 04:27:45;;;;;;;;;;;17.00;86.70;;;17.02;74.71;99954.78;5070743;28;19924;-85
2021/07/30 04:30:13;;;;;;;;;;;17.10;86.70;;;17.03;74.97;99956.47;5071334;28;20384;-85
2021/07/30 04:32:40;;;;;;;;;;;17.10;86.70;;;17.04;75.33;99958.13;5071344;28;19978;-84
2021/07/30 04:35:08;;;;;;;;;;;17.10;86.80;;;17.03;75.28;99954.53;5053246;28;20338;-85
2021/07/30 04:37:35;;;;;;;;;;;17.20;86.80;;;17.02;75.25;99955.63;5052409;28;19959;-85
2021/07/30 04:40:02;;;;;;;;;;;17.30;86.40;;;17.01;75.55;99959.44;5071235;28;19924;-85
2021/07/30 04:42:29;;;;;;;;;;;17.30;86.10;;;17.03;75.26;99965.53;5071098;28;19956;-85
2021/07/30 04:44:57;;;;;;;;;;;17.30;85.80;;;17.03;75.42;99968.28;5071478;28;19924;-85
2021/07/30 04:47:25;;;;;;;;;;;17.40;86.00;;;17.02;75.44;99969.38;5052277;28;20414;-85
2021/07/30 04:49:52;;;;;;;;;;;17.40;85.20;;;17.05;75.37;99965.31;5071060;28;19920;-85
2021/07/30 04:52:19;;;;;;;;;;;17.60;85.10;;;17.06;75.47;99959.56;5070980;28;19924;-85
2021/07/30 04:54:47;;;;;;;;;;;17.60;84.80;;;17.10;75.41;99959.94;5070836;28;19924;-85
2021/07/30 04:57:14;;;;;;;;;;;17.60;84.50;;;17.09;75.29;99961.81;5051095;28;19924;-85
2021/07/30 04:59:41;;;;;;;;;;;17.60;84.40;;;17.10;75.23;99958.00;5052661;28;19982;-85
2021/07/30 05:02:09;;;;;;;;;;;17.60;84.40;;;17.13;75.43;99963.00;5070840;28;19924;-85
2021/07/30 05:04:37;;;;;;;;;;;17.70;84.60;;;17.14;75.12;99964.69;5069995;28;19924;-85
2021/07/30 05:07:05;;;;;;;;;;;17.70;84.30;;;17.14;75.22;99959.19;5069922;28;19924;-85
2021/07/30 05:09:32;;;;;;;;;;;17.80;84.10;;;17.16;75.28;99962.53;5070696;28;19949;-85
2021/07/30 05:11:59;;;;;;;;;;;17.80;84.10;;;17.17;75.21;99961.47;5052423;28;19928;-85
2021/07/30 05:14:26;;;;;;;;;;;17.80;84.00;;;17.19;75.18;99961.22;5070463;28;19920;-85
2021/07/30 05:16:53;;;;;;;;;;;17.90;83.80;;;17.20;75.18;99958.22;5069627;28;19924;-86
2021/07/30 05:19:20;;;;;;;;;;;18.00;83.60;;;17.20;75.39;99944.47;5072938;28;19959;-85
2021/07/30 05:21:49;;;;;;;;;;;18.00;83.50;;;17.24;75.65;99950.31;5070185;28;19924;-85
2021/07/30 05:24:16;;;;;;;;;;;18.10;83.50;;;17.25;75.59;99948.41;5070409;28;19967;-85
2021/07/30 05:26:43;;;;;;;;;;;18.30;82.50;;;17.25;75.39;99953.91;5069379;28;20039;-85
2021/07/30 05:29:10;;;;;;;;;;;18.40;81.90;;;17.26;75.44;99950.09;5070162;28;19954;-85
2021/07/30 05:31:37;;;;;;;;;;;18.50;81.40;;;17.27;75.16;99940.75;5070081;28;19924;-85
2021/07/30 05:34:04;;;;;;;;;;;18.60;80.80;;;17.27;75.01;99943.50;5070323;28;19967;-85
2021/07/30 05:36:31;;;;;;;;;;;18.60;80.50;;;17.30;74.47;99940.28;5069372;28;19928;-85
2021/07/30 05:38:59;;;;;;;;;;;18.70;79.70;;;17.29;74.50;99938.63;5070125;28;20018;-85
2021/07/30 05:41:26;;;;;;;;;;;18.70;80.10;;;17.32;74.66;99940.84;5069922;28;19928;-85
2021/07/30 05:43:54;;;;;;;;;;;18.80;79.60;;;17.36;75.18;99936.53;5069907;28;19924;-85
2021/07/30 05:46:21;;;;;;;;;;;18.90;79.80;;;17.41;74.74;99939.41;5068976;28;19952;-85
2021/07/30 05:48:49;;;;;;;;;;;18.90;79.40;;;17.45;74.57;99929.56;5069861;28;19928;-85
2021/07/30 05:51:16;;;;;;;;;;;19.10;78.70;;;17.48;74.02;99929.09;5069751;28;20019;-85
2021/07/30 05:53:43;;;;;;;;;;;19.30;77.70;;;17.55;74.50;99932.53;5069665;28;19977;-85
2021/07/30 05:56:11;;;;;;;;;;;19.30;77.90;;;17.58;74.26;99926.53;5069270;28;19973;-86
2021/07/30 05:58:38;;;;;;;;;;;19.30;77.70;;;17.63;74.03;99928.56;5069574;28;20002;-85
2021/07/30 06:01:05;;;;;;;;;;;19.50;77.40;;;17.66;74.29;99930.81;5069528;28;20375;-86
2021/07/30 06:03:32;;;;;;;;;;;19.60;77.20;;;17.78;73.65;99922.50;5051790;28;19982;-85
2021/07/30 06:06:02;;;;;;;;;;;19.80;76.10;;;17.88;73.44;99913.66;5051215;28;19928;-86
2021/07/30 06:08:29;;;;;;;;;;;20.10;74.80;;;17.98;73.01;99919.31;5051531;28;19932;-86
2021/07/30 06:10:56;;;;;;;;;;;20.80;71.90;;;18.09;73.04;99914.84;5069568;28;19940;-86
2021/07/30 06:13:43;;;;;;;;;;;22.00;66.30;;;18.20;72.38;99913.06;5051599;28;20411;-86
2021/07/30 06:16:10;;;;;;;;;;;23.00;62.20;;;18.31;71.93;99910.22;5068765;28;19928;-86
2021/07/30 06:18:38;;;;;;;;;;;23.60;60.20;;;18.45;71.38;99912.66;5069346;28;20058;-86
2021/07/30 06:21:06;;;;;;;;;;;24.40;58.00;;;18.54;71.48;99916.66;5051493;28;19924;-86
2021/07/30 06:23:33;;;;;;;;;;;25.30;54.70;;;18.61;71.80;99911.81;5051439;28;19925;-86
2021/07/30 06:26:00;;;;;;;;;;;25.30;54.40;;;18.67;71.44;99907.22;5068614;28;19935;-86
2021/07/30 06:28:32;;;;;;;;;;;24.40;57.80;;;18.73;71.48;99915.31;5069302;28;19931;-86
2021/07/30 06:30:59;;;;;;;;;;;23.80;60.30;;;18.78;71.09;99906.25;5051509;28;19973;-86
2021/07/30 06:33:28;;;;;;;;;;;23.40;61.60;;;18.81;70.55;99899.44;5084853;28;19956;-86
2021/07/30 06:35:57;;;;;;;;;;;23.10;62.90;;;18.86;70.00;99908.59;5068797;28;20493;-86
2021/07/30 06:38:25;;;;;;;;;;;22.90;63.50;;;18.92;69.99;99906.75;5069274;28;19967;-86
2021/07/30 06:40:52;;;;;;;;;;;22.70;63.50;;;18.95;70.64;99911.78;5051241;28;19928;-85
2021/07/30 06:43:19;;;;;;;;;;;22.50;66.00;;;18.97;69.72;99909.59;5069379;28;19921;-86
2021/07/30 06:45:47;;;;;;;;;;;22.30;65.80;;;18.95;69.67;99909.00;5069101;28;19920;-86
2021/07/30 06:48:14;;;;;;;;;;;22.10;66.50;;;18.98;69.09;99910.41;5068756;28;20436;-86
2021/07/30 06:50:41;;;;;;;;;;;21.90;66.90;;;18.98;70.00;99908.50;5069257;28;20347;-86
2021/07/30 06:53:10;;;;;;;;;;;21.90;68.20;;;18.99;68.86;99915.69;5051110;28;19963;-85
2021/07/30 06:55:37;;;;;;;;;;;21.80;67.10;;;18.98;68.24;99907.66;5069101;28;20347;-86
2021/07/30 06:58:04;;;;;;;;;;;21.70;68.00;;;18.95;69.71;99911.78;5068366;28;19988;-86
2021/07/30 07:00:31;;;;;;;;;;;21.70;68.80;;;19.01;69.61;99908.00;5050818;28;20280;-86
2021/07/30 07:03:00;;;;;;;;;;;21.80;68.50;;;19.02;69.18;99901.41;5069485;28;20412;-85
2021/07/30 07:05:27;;;;;;;;;;;21.80;68.00;;;19.07;69.89;99903.38;5069081;28;19924;-86
2021/07/30 07:07:54;;;;;;;;;;;21.80;68.60;;;19.08;69.88;99918.84;5068446;28;19947;-85
2021/07/30 07:10:21;;;;;;;;;;;21.80;68.80;;;19.08;69.71;99918.84;5069015;28;19958;-85
2021/07/30 07:12:48;;;;;;;;;;;21.70;68.80;;;19.10;69.68;99911.97;5069034;28;19924;-85
2021/07/30 07:15:15;;;;;;;;;;;21.70;68.90;;;19.13;69.99;99908.72;5051342;28;19930;-86
2021/07/30 07:17:42;;;;;;;;;;;21.80;69.10;;;19.21;71.60;99904.69;5068293;28;19978;-85
2021/07/30 07:20:11;;;;;;;;;;;22.00;69.50;;;19.29;70.02;99906.16;5051094;28;19931;-86
2021/07/30 07:22:38;;;;;;;;;;;22.10;68.40;;;19.34;69.35;99897.91;5053127;28;19924;-86
2021/07/30 07:25:06;;;;;;;;;;;22.20;67.80;;;19.37;69.53;99905.69;5068860;28;19970;-86
2021/07/30 07:27:33;;;;;;;;;;;22.20;68.20;;;19.38;68.38;99901.84;5052332;28;20658;-86
2021/07/30 07:30:01;;;;;;;;;;;22.20;67.40;;;19.44;69.42;99903.56;5072590;28;19990;-86
2021/07/30 07:32:28;;;;;;;;;;;22.20;67.60;;;19.53;70.69;99902.03;5072389;28;19924;-85
2021/07/30 07:34:55;;;;;;;;;;;22.40;68.30;;;19.58;68.53;99898.47;5054404;28;19940;-86
2021/07/30 07:37:23;;;;;;;;;;;22.50;66.70;;;19.67;69.37;99894.16;5071750;28;19920;-85
2021/07/30 07:39:50;;;;;;;;;;;22.60;67.40;;;19.71;69.99;99887.00;5072248;28;20347;-85
2021/07/30 07:42:17;;;;;;;;;;;22.70;67.30;;;19.74;68.69;99891.19;5054251;28;20023;-85
2021/07/30 07:44:45;;;;;;;;;;;22.80;66.20;;;19.77;68.36;99889.88;5054387;28;19932;-86
2021/07/30 07:47:14;;;;;;;;;;;22.80;65.90;;;19.78;68.47;99884.09;5053622;28;19931;-86
2021/07/30 07:49:41;;;;;;;;;;;22.80;65.90;;;19.81;70.40;99886.31;5072441;28;19928;-86
2021/07/30 07:52:08;;;;;;;;;;;22.70;68.00;;;19.83;68.38;99883.28;5072118;28;19924;-85
2021/07/30 07:54:36;;;;;;;;;;;22.80;66.90;;;19.90;68.97;99884.75;5072695;28;19925;-85
2021/07/30 07:57:07;;;;;;;;;;;22.90;66.90;;;19.98;69.27;99875.13;5053490;28;20014;-86
2021/07/30 07:59:34;;;;;;;;;;;22.90;67.00;;;20.02;67.52;99875.44;5072047;28;20465;-86
2021/07/30 08:02:02;;;;;;;;;;;23.00;65.20;;;20.08;68.65;99874.41;5071854;28;20309;-85
2021/07/30 08:04:34;;;;;;;;;;;23.00;65.80;;;20.13;70.19;99871.69;5072117;28;19924;-85
2021/07/30 08:07:09;;;;;;;;;;;23.10;67.40;;;20.16;69.24;99860.09;5084410;22;19928;-79
2021/07/30 08:10:27;;;;;;;;;;;23.10;66.80;;;20.13;68.60;99863.41;5031880;28;20423;-79
2021/07/30 08:13:06;;;;;;;;;;;23.10;66.10;;;20.22;67.81;99874.78;5031821;28;20300;-79
2021/07/30 08:15:34;;;;;;;;;;;23.20;65.20;;;20.30;72.17;99866.84;5031890;28;19925;-79
2021/07/30 08:18:05;;;;;;;;;;;23.30;68.30;;;20.35;68.41;99867.97;5020325;28;20447;-79
2021/07/30 08:20:35;;;;;;;;;;;23.40;65.40;;;20.36;67.37;99864.13;4994052;28;19956;-79
2021/07/30 08:23:06;;;;;;;;;;;23.40;65.20;;;20.39;68.48;99869.09;5011735;28;19925;-80
2021/07/30 08:25:36;;;;;;;;;;;23.40;64.80;;;20.40;67.14;99865.25;5011835;28;20382;-79
2021/07/30 08:28:05;;;;;;;;;;;23.50;64.40;;;20.41;65.25;99872.44;4993274;28;19987;-80
2021/07/30 08:30:35;;;;;;;;;;;23.40;63.00;;;20.44;66.89;99863.63;5011524;28;19980;-79
2021/07/30 08:33:02;;;;;;;;;;;23.50;63.60;;;20.49;67.13;99855.38;5010298;28;19929;-79
2021/07/30 08:35:29;;;;;;;;;;;23.50;64.50;;;20.55;66.74;99859.81;5011718;28;19968;-79
2021/07/30 08:37:56;;;;;;;;;;;23.60;64.30;;;20.62;66.90;99862.38;5010085;28;19980;-79
2021/07/30 08:40:23;;;;;;;;;;;23.60;63.80;;;20.66;68.10;99860.75;5011302;28;19932;-79
2021/07/30 08:42:51;;;;;;;;;;;23.60;64.60;;;20.71;69.36;99849.69;5011621;28;19952;-79
2021/07/30 08:45:19;;;;;;;;;;;23.60;65.60;;;20.81;68.17;99849.78;4993906;28;19995;-79
2021/07/30 08:47:47;;;;;;;;;;;23.70;65.50;;;20.87;66.26;99856.16;5010822;28;20459;-79
2021/07/30 08:50:14;;;;;;;;;;;23.70;64.30;;;20.89;67.80;99840.94;5011400;28;20011;-79
2021/07/30 08:52:43;;;;;;;;;;;23.70;65.30;;;20.90;67.05;99847.31;5011197;28;19926;-79
2021/07/30 08:55:11;;;;;;;;;;;23.80;64.60;;;20.94;66.86;99831.84;5011397;28;20032;-80
2021/07/30 08:57:42;;;;;;;;;;;23.70;64.70;;;20.94;65.17;99842.91;5010549;28;20336;-79
2021/07/30 09:00:10;;;;;;;;;;;23.70;64.00;;;20.99;67.27;99840.16;5011330;28;19940;-79
2021/07/30 09:02:39;;;;;;;;;;;23.70;64.60;;;21.03;67.59;99838.50;5009813;28;20019;-79
2021/07/30 09:05:25;;;;;;;;;;;23.80;65.00;;;21.10;68.39;99841.03;5011061;28;19925;-79
2021/07/30 09:07:53;;;;;;;;;;;23.80;66.70;;;21.09;65.13;99834.69;5008890;28;20023;-79
2021/07/30 09:10:35;;;;;;;;;;;23.80;64.20;;;21.13;67.93;99843.25;5011214;28;20020;-79
2021/07/30 09:13:24;;;;;;;;;;;23.80;65.50;;;21.14;67.19;99830.28;5011075;28;20052;-80
2021/07/30 09:16:01;;;;;;;;;;;23.90;65.00;;;21.20;67.81;99830.00;5010280;28;20405;-79
2021/07/30 09:18:31;;;;;;;;;;;23.90;66.00;;;21.26;69.49;99830.84;5010935;28;19963;-80
2021/07/30 09:21:18;;;;;;;;;;;23.90;67.00;;;21.26;68.79;99831.66;4993060;28;20358;-80
2021/07/30 09:23:49;;;;;;;;;;;23.90;66.80;;;21.24;66.71;99822.81;5010214;28;19925;-79
2021/07/30 09:26:37;;;;;;;;;;;23.90;65.10;;;21.24;68.32;99825.56;5009813;28;19925;-79
2021/07/30 09:29:06;;;;;;;;;;;23.90;65.60;;;21.24;67.45;99820.03;5010657;28;19972;-80
2021/07/30 09:31:47;;;;;;;;;;;23.80;65.30;;;21.30;68.12;99815.34;5010685;28;19925;-80
2021/07/30 09:34:21;;;;;;;;;;;23.90;66.10;;;21.34;67.45;99818.41;5010653;28;19979;-80
2021/07/30 09:36:51;;;;;;;;;;;24.00;65.70;;;21.35;65.41;99809.84;5009712;28;20012;-79
2021/07/30 09:39:20;;;;;;;;;;;24.10;64.20;;;21.36;66.06;99808.75;5010581;28;19972;-80
2021/07/30 09:41:52;;;;;;;;;;;24.10;64.60;;;21.35;65.90;99809.00;5010507;28;20304;-79
2021/07/30 09:44:20;;;;;;;;;;;24.00;64.50;;;21.28;66.07;99809.25;5010533;28;19976;-79
2021/07/30 09:47:03;;;;;;;;;;;24.00;64.50;;;21.27;67.57;99802.09;4991796;28;19932;-80
2021/07/30 09:49:47;;;;;;;;;;;24.10;64.90;;;21.31;68.03;99797.66;5010120;28;19932;-80
2021/07/30 09:52:16;;;;;;;;;;;24.10;65.40;;;21.31;66.98;99792.13;5010369;28;19925;-80
2021/07/30 09:55:01;;;;;;;;;;;24.20;64.50;;;21.33;64.50;99797.38;5010273;28;19929;-80
2021/07/30 09:57:30;;;;;;;;;;;24.20;63.20;;;21.32;64.87;99785.47;5009529;28;19968;-80
2021/07/30 09:59:59;;;;;;;;;;;24.30;62.90;;;21.35;66.54;99782.16;5010409;28;19932;-79
2021/07/30 10:02:28;;;;;;;;;;;24.30;64.30;;;21.43;68.02;99778.84;5009970;28;19964;-79
2021/07/30 10:04:57;;;;;;;;;;;24.40;65.70;;;21.45;66.82;99771.13;5010022;28;19925;-80
2021/07/30 10:07:25;;;;;;;;;;;24.40;64.20;;;21.53;69.89;99768.91;5008953;28;20362;-80
2021/07/30 10:10:06;;;;;;;;;;;24.50;66.20;;;21.66;68.84;99771.13;5009977;28;19932;-80
2021/07/30 10:12:34;;;;;;;;;;;24.70;65.40;;;21.79;68.69;99776.13;5009978;28;20390;-80
2021/07/30 10:15:03;;;;;;;;;;;24.70;65.90;;;21.79;70.30;99765.03;5010026;28;19980;-80
2021/07/30 10:17:31;;;;;;;;;;;24.70;67.00;;;21.77;72.51;99758.13;5009168;28;19995;-80
2021/07/30 10:20:01;;;;;;;;;;;24.70;68.00;;;21.81;69.23;99750.94;5009868;28;19925;-80
2021/07/30 10:22:37;;;;;;;;;;;24.80;66.00;;;21.80;68.16;99750.09;5009826;28;19936;-80
2021/07/30 10:25:05;;;;;;;;;;;24.70;65.30;;;21.79;63.91;99744.84;5009949;28;19991;-80
2021/07/30 10:27:32;;;;;;;;;;;24.70;62.10;;;21.74;66.59;99745.69;5009076;28;19926;-80
2021/07/30 10:30:08;;;;;;;;;;;24.60;64.20;;;21.75;68.77;99735.44;5009963;28;20655;-80
2021/07/30 10:33:02;;;;;;;;;;;24.60;64.70;;;21.81;67.70;99731.53;5010033;28;19925;-80
2021/07/30 10:35:46;;;;;;;;;;;24.60;64.90;;;21.79;64.60;99734.56;5009764;28;19925;-80
2021/07/30 10:38:16;;;;;;;;;;;24.50;62.80;;;21.69;64.51;99731.00;4991436;28;20019;-80
2021/07/30 10:40:44;;;;;;;;;;;24.40;62.50;;;21.63;64.37;99733.75;5009664;28;20232;-80
2021/07/30 10:43:12;;;;;;;;;;;24.30;62.90;;;21.67;68.05;99728.50;5009633;28;19932;-79
2021/07/30 10:45:40;;;;;;;;;;;24.40;65.70;;;21.68;67.23;99730.16;5009616;28;19956;-80
2021/07/30 10:48:35;;;;;;;;;;;24.50;65.50;;;21.69;66.76;99720.75;5008963;28;20441;-80
2021/07/30 10:51:24;;;;;;;;;;;24.40;64.50;;;21.63;67.55;99727.41;5009599;28;19925;-80
2021/07/30 10:53:53;;;;;;;;;;;24.30;66.20;;;21.61;69.02;99724.91;4991977;28;20386;-79
2021/07/30 10:56:51;;;;;;;;;;;24.30;66.90;;;21.64;66.24;99718.78;5008980;28;20346;-79
2021/07/30 10:59:23;;;;;;;;;;;24.30;65.70;;;21.65;69.64;99703.03;5009523;28;19979;-80
2021/07/30 11:01:58;;;;;;;;;;;24.30;66.30;;;21.78;68.00;99712.69;5010538;28;19922;-80
2021/07/30 11:04:25;;;;;;;;;;;24.40;66.30;;;21.80;64.36;99711.31;5013571;28;20030;-80
2021/07/30 11:06:55;;;;;;;;;;;24.40;63.40;;;21.75;66.09;99713.25;5012209;28;19993;-81
2021/07/30 11:09:41;;;;;;;;;;;24.30;65.80;;;21.69;66.05;99709.66;5013385;28;19975;-79
2021/07/30 11:12:13;;;;;;;;;;;24.30;64.50;;;21.67;65.78;99712.72;5010710;28;19971;-80
2021/07/30 11:14:43;;;;;;;;;;;24.30;64.20;;;21.76;68.65;99715.75;5013093;28;20532;-80
2021/07/30 11:17:12;;;;;;;;;;;24.40;67.20;;;21.77;65.88;99711.88;5012341;28;19926;-80
2021/07/30 11:19:41;;;;;;;;;;;24.40;64.40;;;21.80;67.28;99708.56;5012722;28;20291;-80
2021/07/30 11:22:11;;;;;;;;;;;24.40;65.30;;;21.85;67.22;99707.69;5012901;28;19971;-80
2021/07/30 11:24:39;;;;;;;;;;;24.40;65.90;;;21.94;68.21;99705.22;5012931;28;19968;-80
2021/07/30 11:27:08;;;;;;;;;;;24.50;66.70;;;21.86;67.81;99709.38;5012257;28;19925;-80
2021/07/30 11:29:35;;;;;;;;;;;24.50;65.70;;;21.80;66.59;99704.94;4995193;28;20383;-80
2021/07/30 11:32:04;;;;;;;;;;;24.40;65.70;;;21.72;66.76;99703.56;4995307;28;19976;-79
2021/07/30 11:34:33;;;;;;;;;;;24.30;65.60;;;21.70;66.30;99711.31;4995100;28;20565;-80